EGXPEGSS

Guest
Details From EGXP - RAF Scampton
To EGSS - London Stansted
Flight Number -
Tags generated
Created
Modified
Stats Distance 90 nm / 167 km
Max Altitude 1,500 ft / 457 m
Waypoints 3
Social Downloads 5
Likes 0
Share VATSIM

Download

Looking for another format? Having issues loading an existing format? Contact us
Advertisement - Login to hide

Notes

Basic altitude profile: - Ascent Rate: 2500ft/min - Ascent Speed: 250kts - Cruise Altitude: 35000ft - Cruise Speed: 420kts - Descent Rate: 1500ft/min - Descent Speed: 250kts Options: - Use NATs: yes - Use PACOTS: yes - Use low airways: yes - Use high airways: yes

Route

EGXP ADMIS EGSS

ID Type Via Altitude Latitude Longitude Leg Dist Tot Dist Heading (true) Name
O EGXP APT - 0 ft / 0 m 53.30794˚ -0.55083˚ - 0 nm - RAF Scampton
ADMIS FIX - 1,500 ft / 457 m 51.99694˚ 0.17667˚ 83 nm 83 nm 161° / 162° -
O EGSS APT - 0 ft / 0 m 51.88510˚ 0.23496˚ 7 nm 90 nm 162° / 162° London Stansted

Altitude Profile

Advertisement - Login to hide

EGXP

Details ICAO EGXP
Name RAF Scampton
Region United Kingdom
Timezone Europe/London (UTC+1.0)
Stats Elevation 202 ft / 62 m (AMSL)
Location 53.307944° -0.550831°
Runways 1
Magnetic Variation 0.739° W

METAR

EGXP 260150Z AUTO 03010KT 3700 // BKN002/// 11/11 Q1021

Decode

TAF

Not found

Departure Runways

ID Width Length Bearing (true) Bearing (mag) Surface Threshold Offset Overrun Length
04 200 ft / 61 m 8,974 ft / 2,735 m 41.07° 41.81° Asphalt 0 ft / 0 m 0 ft / 0 m
22 200 ft / 61 m 8,974 ft / 2,735 m 221.09° 221.83° Asphalt 0 ft / 0 m 0 ft / 0 m

EGSS

Details ICAO EGSS (STN)
Name London Stansted
Region United Kingdom
Timezone Europe/London (UTC+1.0)
Stats Elevation 348 ft / 106 m (AMSL)
Location 51.885097° 0.234962°
Runways 1
Magnetic Variation 0.297° W

METAR

EGSS 260220Z AUTO 02006KT 1800 BR OVC004 15/14 Q1020

Decode

TAF

TAF AMD EGSS 260209Z 2602/2706 03008KT 1200 BR BKN004 TEMPO 2602/2606 4000 BKN006 PROB40 2602/2608 0200 FG BKN001 BECMG 2606/2609 9999 NSW SCT015 PROB30 TEMPO 2606/2609 +SHRA PROB30 TEMPO 2622/2703 4000 +TSRA BKN014 BKN045CB

Decode

Destination Runways

ID Width Length Bearing (true) Bearing (mag) Surface Threshold Offset Overrun Length
04 151 ft / 46 m 10,011 ft / 3,052 m 42.79° 43.09° Asphalt 994 ft / 303 m 0 ft / 0 m
22 151 ft / 46 m 10,011 ft / 3,052 m 222.81° 223.11° Asphalt 0 ft / 0 m 0 ft / 0 m

Approach Navaids

Runway Type Ident Frequency Range Bearing (true) Bearing (mag) Slope Elevation
04 Localiser ISED 110.50 MHz 18 nm / 33 km 42.80° 43.10° - 348 ft / 106 m (AMSL)
04 Glidescope ISED 110.50 MHz 10 nm / 19 km 42.80° 43.10° 3.00° 348 ft / 106 m (AMSL)
04 DME ISED 110.50 MHz 18 nm / 33 km - - - 348 ft / 106 m (AMSL)
22 Localiser ISX 110.50 MHz 18 nm / 33 km 222.80° 223.10° - 348 ft / 106 m (AMSL)
22 Glidescope ISX 110.50 MHz 10 nm / 19 km 222.80° 223.10° 3.00° 348 ft / 106 m (AMSL)
22 DME ISX 110.50 MHz 18 nm / 33 km - - - 348 ft / 106 m (AMSL)